Time;durP1;ratioP1;P1;durP2;ratioP2;P2;SDS_P1;SDS_P2;PMS_P1;PMS_P2;Temp;Humidity;BMP_temperature;BMP_pressure;BME280_temperature;BME280_humidity;BME280_pressure;Samples;Min_cycle;Max_cycle;Signal;HPM_P1;HPM_P2
2023/08/15 00:02:00;;;;;;;12.40;2.60;;;21.00;99.90;;;;;;4951021;28;20023;-82
2023/08/15 00:04:27;;;;;;;6.65;2.40;;;21.00;99.90;;;;;;4953773;28;20035;-83
2023/08/15 00:06:52;;;;;;;8.13;2.80;;;21.00;99.90;;;;;;4953126;28;20487;-82
2023/08/15 00:09:18;;;;;;;12.70;2.97;;;21.00;99.90;;;;;;4953209;28;20103;-83
2023/08/15 00:11:44;;;;;;;10.57;2.60;;;20.90;99.90;;;;;;4952966;29;20050;-83
2023/08/15 00:14:11;;;;;;;11.60;3.28;;;20.80;99.90;;;;;;4951057;29;20035;-84
2023/08/15 00:16:36;;;;;;;14.15;3.15;;;20.80;99.90;;;;;;4952351;28;20039;-83
2023/08/15 00:19:02;;;;;;;9.95;3.08;;;20.80;99.90;;;;;;4952691;29;20460;-82
2023/08/15 00:21:28;;;;;;;13.23;2.90;;;20.80;99.90;;;;;;4951591;29;20031;-83
2023/08/15 00:23:54;;;;;;;12.77;2.83;;;20.70;99.90;;;;;;4951429;28;20027;-83
2023/08/15 00:26:19;;;;;;;12.35;3.17;;;20.80;99.90;;;;;;4952795;29;20055;-83
2023/08/15 00:28:45;;;;;;;9.20;2.78;;;20.70;99.90;;;;;;4952736;28;20519;-83
2023/08/15 00:31:10;;;;;;;13.40;2.58;;;20.70;99.90;;;;;;4950992;28;20019;-83
2023/08/15 00:33:36;;;;;;;10.75;3.03;;;20.70;99.90;;;;;;4952151;29;20526;-83
2023/08/15 00:36:04;;;;;;;11.48;2.72;;;20.60;99.90;;;;;;4953036;29;20059;-83
2023/08/15 00:38:29;;;;;;;10.52;2.72;;;20.60;99.90;;;;;;4953361;28;20035;-83
2023/08/15 00:40:55;;;;;;;10.80;2.90;;;20.60;99.90;;;;;;4951424;28;20395;-83
2023/08/15 00:43:20;;;;;;;5.10;2.05;;;20.60;99.90;;;;;;4952144;28;20067;-83
2023/08/15 00:45:46;;;;;;;5.82;1.75;;;20.50;99.90;;;;;;4952042;28;20023;-83
2023/08/15 00:48:12;;;;;;;4.13;1.27;;;20.50;99.90;;;;;;4952264;29;20387;-83
2023/08/15 00:50:41;;;;;;;2.42;1.20;;;20.40;99.90;;;;;;4951991;29;20094;-90
2023/08/15 00:53:08;;;;;;;2.28;1.15;;;20.30;99.90;;;;;;4952127;28;20035;-83
2023/08/15 00:55:33;;;;;;;4.25;1.08;;;20.00;99.90;;;;;;4951450;28;20046;-83
2023/08/15 00:57:59;;;;;;;2.10;0.85;;;20.00;99.90;;;;;;4952458;28;20058;-84
2023/08/15 01:00:26;;;;;;;1.00;0.70;;;20.00;99.90;;;;;;4952325;28;20384;-83
2023/08/15 01:02:52;;;;;;;0.95;0.70;;;19.90;99.90;;;;;;4952132;28;20046;-85
2023/08/15 01:05:20;;;;;;;1.70;0.52;;;19.80;99.90;;;;;;4951665;29;20031;-83
2023/08/15 01:07:45;;;;;;;0.57;0.57;;;19.80;99.90;;;;;;4952017;29;20031;-83
2023/08/15 01:10:11;;;;;;;1.13;0.60;;;19.90;99.90;;;;;;4951471;29;20090;-87
2023/08/15 01:13:02;;;;;;;1.40;0.57;;;19.80;99.90;;;;;;4951462;28;20042;-83
2023/08/15 01:15:31;;;;;;;1.35;0.52;;;19.80;99.90;;;;;;4950854;28;20053;-82
2023/08/15 01:18:10;;;;;;;1.40;0.65;;;19.70;99.90;;;;;;4951668;29;20047;-83
2023/08/15 01:20:37;;;;;;;2.05;0.60;;;19.80;99.90;;;;;;4949606;28;20039;-83
2023/08/15 01:23:08;;;;;;;0.95;0.50;;;19.80;99.90;;;;;;4952204;28;20058;-82
2023/08/15 01:25:41;;;;;;;0.35;0.30;;;19.70;99.90;;;;;;4952110;28;20062;-83
2023/08/15 01:28:14;;;;;;;2.38;0.50;;;19.70;99.90;;;;;;4951466;28;20019;-85
2023/08/15 01:31:08;;;;;;;0.57;0.50;;;19.50;99.90;;;;;;4951661;28;20035;-85
2023/08/15 01:33:54;;;;;;;0.77;0.70;;;19.60;99.90;;;;;;4945560;29;20051;-85
2023/08/15 01:36:28;;;;;;;1.50;0.60;;;19.50;99.90;;;;;;4932421;29;20031;-85
2023/08/15 01:39:00;;;;;;;1.20;0.55;;;19.50;99.90;;;;;;4932657;29;20039;-85
2023/08/15 01:41:28;;;;;;;0.75;0.63;;;19.40;99.90;;;;;;4940859;29;20195;-86
2023/08/15 01:43:54;;;;;;;1.08;0.60;;;19.40;99.90;;;;;;4950832;29;20130;-85
2023/08/15 01:46:20;;;;;;;0.93;0.60;;;19.50;99.90;;;;;;4950614;28;20408;-86
2023/08/15 01:48:46;;;;;;;1.10;0.45;;;19.50;99.90;;;;;;4950790;29;20432;-85
2023/08/15 01:51:12;;;;;;;1.75;0.63;;;19.40;99.90;;;;;;4951382;28;20031;-93
2023/08/15 01:53:38;;;;;;;0.50;0.50;;;19.40;99.90;;;;;;4949883;29;20519;-85
2023/08/15 01:56:04;;;;;;;0.40;0.40;;;19.20;99.90;;;;;;4946475;29;20040;-85
2023/08/15 01:58:30;;;;;;;0.63;0.55;;;19.20;99.90;;;;;;4932057;29;20059;-85
2023/08/15 02:00:57;;;;;;;1.38;0.60;;;19.40;99.90;;;;;;4947236;29;20263;-85
2023/08/15 02:03:22;;;;;;;1.52;0.90;;;19.10;99.90;;;;;;4949175;29;20028;-84
2023/08/15 02:05:48;;;;;;;0.70;0.70;;;19.10;99.90;;;;;;4950858;28;20571;-85
2023/08/15 02:08:14;;;;;;;1.15;1.05;;;19.10;99.90;;;;;;4950442;28;20522;-85
2023/08/15 02:10:40;;;;;;;1.38;1.02;;;19.10;99.90;;;;;;4948754;29;20059;-85
2023/08/15 02:13:05;;;;;;;0.60;0.60;;;18.90;99.90;;;;;;4951793;29;20027;-85
2023/08/15 02:15:31;;;;;;;2.65;0.90;;;18.90;99.90;;;;;;4949455;29;20043;-85
2023/08/15 02:17:56;;;;;;;3.42;0.90;;;19.00;99.90;;;;;;4951071;28;20242;-85
2023/08/15 02:20:22;;;;;;;3.28;0.80;;;19.00;99.90;;;;;;4950690;29;20035;-85
2023/08/15 02:22:47;;;;;;;3.70;1.00;;;19.00;99.90;;;;;;4950753;29;20427;-85
2023/08/15 02:25:13;;;;;;;4.53;1.10;;;19.00;99.90;;;;;;4950971;29;20066;-85
2023/08/15 02:27:38;;;;;;;5.00;0.95;;;19.10;99.90;;;;;;4951088;29;20023;-90
2023/08/15 02:30:05;;;;;;;5.93;1.10;;;18.90;99.90;;;;;;4951391;28;20042;-85
2023/08/15 02:32:31;;;;;;;3.22;1.00;;;18.90;99.90;;;;;;4946082;28;20074;-85
2023/08/15 02:34:56;;;;;;;3.10;1.10;;;19.00;99.90;;;;;;4950487;28;20039;-85
2023/08/15 02:37:22;;;;;;;3.45;1.00;;;19.00;99.90;;;;;;4944983;29;20027;-86
2023/08/15 02:39:48;;;;;;;2.83;1.10;;;19.00;99.90;;;;;;4948696;29;20035;-85
2023/08/15 02:42:13;;;;;;;2.25;1.00;;;19.00;99.90;;;;;;4944331;28;20039;-86
2023/08/15 02:44:39;;;;;;;5.28;1.27;;;19.00;99.90;;;;;;4947174;29;20061;-85
2023/08/15 02:47:05;;;;;;;3.78;1.20;;;19.10;99.90;;;;;;4951290;29;20035;-86
2023/08/15 02:49:31;;;;;;;3.08;1.00;;;19.00;99.90;;;;;;4947206;28;20511;-85
2023/08/15 02:51:57;;;;;;;4.18;1.20;;;18.90;99.90;;;;;;4950440;29;20030;-91
2023/08/15 02:54:22;;;;;;;6.55;1.27;;;19.00;99.90;;;;;;4949795;29;20047;-90
2023/08/15 02:56:48;;;;;;;2.90;1.33;;;19.10;99.90;;;;;;4949960;28;20074;-84
2023/08/15 02:59:13;;;;;;;4.57;1.95;;;19.10;99.90;;;;;;4951130;29;20071;-91
2023/08/15 03:01:39;;;;;;;4.15;1.00;;;19.10;99.90;;;;;;4948298;29;20031;-86
2023/08/15 03:04:09;;;;;;;1.95;1.10;;;19.20;99.90;;;;;;4948991;28;20071;-91
2023/08/15 03:06:35;;;;;;;2.40;1.30;;;19.20;99.90;;;;;;4950515;28;20366;-89
2023/08/15 03:09:01;;;;;;;1.02;0.90;;;19.20;99.90;;;;;;4951512;28;20051;-91
2023/08/15 03:11:29;;;;;;;4.78;1.48;;;19.20;99.90;;;;;;4949895;28;20027;-90
2023/08/15 03:13:55;;;;;;;2.67;1.20;;;19.20;99.90;;;;;;4950642;28;20400;-90
2023/08/15 03:16:21;;;;;;;4.25;1.08;;;19.20;99.90;;;;;;4951069;29;20484;-89
2023/08/15 03:18:47;;;;;;;1.90;1.00;;;19.30;99.90;;;;;;4950529;28;20042;-91
2023/08/15 03:21:12;;;;;;;1.80;0.98;;;19.30;99.90;;;;;;4952270;28;20024;-89
2023/08/15 03:23:38;;;;;;;4.10;1.70;;;19.30;99.90;;;;;;4951254;29;20032;-86
2023/08/15 03:26:04;;;;;;;3.40;1.20;;;19.30;99.90;;;;;;4953799;29;20038;-89
2023/08/15 03:28:32;;;;;;;6.78;1.30;;;19.30;99.90;;;;;;4968734;28;20175;-86
2023/08/15 03:31:02;;;;;;;2.45;1.35;;;19.30;99.90;;;;;;4953583;29;20027;-90
2023/08/15 03:33:28;;;;;;;4.57;1.42;;;19.30;99.90;;;;;;4935899;29;20087;-89
2023/08/15 03:35:53;;;;;;;10.38;1.30;;;19.30;99.90;;;;;;4935403;29;20031;-88
2023/08/15 03:38:21;;;;;;;5.20;1.50;;;19.20;99.90;;;;;;4951935;28;20507;-82
2023/08/15 03:40:48;;;;;;;9.32;1.60;;;19.20;99.90;;;;;;4953717;28;20035;-84
2023/08/15 03:43:14;;;;;;;4.65;1.20;;;19.20;99.90;;;;;;4952038;29;20035;-83
2023/08/15 03:45:40;;;;;;;4.10;1.55;;;19.20;99.90;;;;;;4954311;28;20090;-83
2023/08/15 03:48:08;;;;;;;4.85;1.40;;;19.20;99.90;;;;;;4953110;29;20407;-84
2023/08/15 03:50:34;;;;;;;4.10;1.33;;;19.30;99.90;;;;;;4953499;28;20023;-84
2023/08/15 03:53:00;;;;;;;7.88;1.30;;;19.20;99.90;;;;;;4951851;28;20420;-84
2023/08/15 03:55:30;;;;;;;1.98;1.20;;;19.20;99.90;;;;;;4947594;29;20451;-84
2023/08/15 03:57:57;;;;;;;3.28;1.30;;;19.20;99.90;;;;;;4953363;28;20038;-84
2023/08/15 04:00:23;;;;;;;5.35;1.27;;;19.20;99.90;;;;;;4953398;29;20035;-84
2023/08/15 04:02:49;;;;;;;4.00;1.65;;;19.20;99.90;;;;;;4953291;28;20483;-85
2023/08/15 04:05:15;;;;;;;3.47;1.60;;;19.20;99.90;;;;;;4953272;28;20020;-85
2023/08/15 04:07:41;;;;;;;2.53;1.20;;;19.10;99.90;;;;;;4952560;28;20447;-84
2023/08/15 04:10:07;;;;;;;5.32;1.60;;;19.10;99.90;;;;;;4953392;28;20024;-85
2023/08/15 04:12:36;;;;;;;2.88;1.20;;;16.60;99.90;;;;;;4967943;28;20260;-85
2023/08/15 04:15:02;;;;;;;2.97;1.40;;;19.20;99.90;;;;;;4951581;28;20031;-83
2023/08/15 04:17:28;;;;;;;2.75;1.13;;;19.20;99.90;;;;;;4951962;29;20150;-83
2023/08/15 04:19:53;;;;;;;5.00;1.13;;;19.10;99.90;;;;;;4952849;28;20027;-84
2023/08/15 04:22:19;;;;;;;3.33;1.73;;;19.10;99.90;;;;;;4947992;28;20031;-84
2023/08/15 04:24:45;;;;;;;2.85;1.40;;;19.20;99.90;;;;;;4945516;28;20082;-83
2023/08/15 04:27:11;;;;;;;2.88;1.30;;;19.10;99.90;;;;;;4948205;28;20059;-87
2023/08/15 04:29:37;;;;;;;4.90;1.42;;;;;;;;;;4944041;28;20121;-84
2023/08/15 04:32:03;;;;;;;5.35;1.40;;;19.20;99.90;;;;;;4946670;28;20057;-86
2023/08/15 04:34:28;;;;;;;4.32;1.20;;;19.10;99.90;;;;;;4945826;28;20388;-91
2023/08/15 04:36:54;;;;;;;5.78;1.70;;;19.10;99.90;;;;;;4945398;28;20105;-84
2023/08/15 04:39:23;;;;;;;2.10;1.50;;;19.10;99.90;;;;;;4945159;28;20039;-85
2023/08/15 04:41:49;;;;;;;3.25;1.80;;;19.00;99.90;;;;;;4951805;28;20023;-89
2023/08/15 04:44:15;;;;;;;4.78;1.73;;;19.00;99.90;;;;;;4946440;28;20505;-84
2023/08/15 04:46:41;;;;;;;7.60;1.90;;;19.00;99.90;;;;;;4944862;28;20023;-87
2023/08/15 04:49:07;;;;;;;5.50;2.03;;;19.00;99.90;;;;;;4943942;28;20027;-90
2023/08/15 04:51:32;;;;;;;7.72;2.13;;;18.80;99.90;;;;;;4942746;28;20510;-85
2023/08/15 04:53:58;;;;;;;5.25;2.10;;;18.80;99.90;;;;;;4944990;28;20042;-84
2023/08/15 04:56:24;;;;;;;3.60;1.90;;;18.70;99.90;;;;;;4942753;28;20463;-84
2023/08/15 04:58:49;;;;;;;4.07;1.92;;;18.70;99.90;;;;;;4948137;28;20035;-84
2023/08/15 05:01:15;;;;;;;4.70;1.95;;;18.70;99.90;;;;;;4952236;28;20019;-90
2023/08/15 05:03:41;;;;;;;4.90;2.20;;;18.70;99.90;;;;;;4952294;29;20031;-90
2023/08/15 05:06:07;;;;;;;4.60;2.08;;;18.70;99.90;;;;;;4952151;29;20495;-90
2023/08/15 05:08:33;;;;;;;3.90;1.83;;;18.80;99.90;;;;;;4952556;28;20042;-90
2023/08/15 05:11:00;;;;;;;3.85;1.80;;;18.90;99.90;;;;;;4952469;29;20032;-90
2023/08/15 05:13:25;;;;;;;3.70;2.38;;;18.90;99.90;;;;;;4952364;28;20055;-91
2023/08/15 05:15:51;;;;;;;5.18;2.00;;;18.90;99.90;;;;;;4947938;28;20062;-86
2023/08/15 05:18:17;;;;;;;5.60;2.20;;;18.90;99.90;;;;;;4951398;29;20399;-85
2023/08/15 05:20:46;;;;;;;5.30;2.10;;;19.10;99.90;;;;;;4951329;28;20027;-84
2023/08/15 05:23:12;;;;;;;8.80;2.40;;;19.00;99.90;;;;;;4947444;28;20023;-85
2023/08/15 05:25:37;;;;;;;5.32;2.30;;;19.10;99.90;;;;;;4945672;28;20050;-85
2023/08/15 05:28:04;;;;;;;4.65;2.08;;;19.00;99.90;;;;;;4949064;28;20030;-85
2023/08/15 05:30:31;;;;;;;4.30;1.90;;;19.00;99.90;;;;;;4948230;28;20063;-84
2023/08/15 05:32:58;;;;;;;10.60;2.17;;;19.00;99.90;;;;;;4945354;28;20023;-88
2023/08/15 05:35:23;;;;;;;9.23;2.58;;;19.00;99.90;;;;;;4950975;28;20098;-91
2023/08/15 05:37:49;;;;;;;9.98;2.10;;;18.90;99.90;;;;;;4951817;28;20480;-84
2023/08/15 05:40:15;;;;;;;5.50;2.28;;;18.90;99.90;;;;;;4948618;28;20107;-85
2023/08/15 05:42:41;;;;;;;6.00;2.08;;;18.80;99.90;;;;;;4939757;28;20027;-83
2023/08/15 05:45:07;;;;;;;5.82;2.17;;;18.80;99.90;;;;;;4949941;29;20043;-83
2023/08/15 05:47:33;;;;;;;5.97;2.30;;;18.90;99.90;;;;;;4951303;29;20023;-82
2023/08/15 05:49:58;;;;;;;3.40;2.03;;;18.90;99.90;;;;;;4950204;28;20085;-82
2023/08/15 05:52:26;;;;;;;6.18;2.00;;;18.90;99.90;;;;;;4950511;28;20024;-83
2023/08/15 05:54:51;;;;;;;6.53;2.00;;;19.00;99.90;;;;;;4950258;29;20051;-83
2023/08/15 05:57:17;;;;;;;6.82;2.40;;;18.90;99.90;;;;;;4950959;29;20016;-82
2023/08/15 05:59:42;;;;;;;5.68;2.10;;;19.00;99.90;;;;;;4945748;28;20039;-85
2023/08/15 06:02:09;;;;;;;8.40;2.45;;;15.70;99.90;;;;;;4950990;29;20685;-86
2023/08/15 06:04:35;;;;;;;7.22;2.20;;;19.00;99.90;;;;;;4949656;29;20399;-85
2023/08/15 06:07:02;;;;;;;4.40;2.25;;;18.90;99.90;;;;;;4950103;29;20500;-85
2023/08/15 06:09:28;;;;;;;4.72;1.98;;;19.00;99.90;;;;;;4951189;28;20041;-85
2023/08/15 06:11:54;;;;;;;8.65;2.47;;;19.00;99.90;;;;;;4950646;28;20032;-85
2023/08/15 06:14:20;;;;;;;5.50;2.13;;;18.90;99.90;;;;;;4942012;28;20519;-84
2023/08/15 06:16:46;;;;;;;7.32;2.67;;;18.80;99.90;;;;;;4951928;29;20487;-89
2023/08/15 06:19:12;;;;;;;9.35;2.33;;;18.90;99.90;;;;;;4951144;29;20063;-89
2023/08/15 06:21:41;;;;;;;5.70;2.35;;;18.80;99.90;;;;;;4950622;29;20416;-89
2023/08/15 06:24:10;;;;;;;6.30;2.55;;;18.90;99.90;;;;;;4950646;28;20066;-84
2023/08/15 06:26:36;;;;;;;5.88;2.33;;;18.90;99.90;;;;;;4950085;28;20027;-89
2023/08/15 06:29:03;;;;;;;7.40;2.30;;;19.00;99.90;;;;;;4950975;29;20035;-84
2023/08/15 06:31:28;;;;;;;13.82;2.13;;;19.00;99.90;;;;;;4951018;28;20381;-84
2023/08/15 06:33:54;;;;;;;6.95;2.05;;;19.00;99.90;;;;;;4950842;29;20078;-88
2023/08/15 06:36:19;;;;;;;8.25;2.03;;;19.00;99.90;;;;;;4950664;28;20069;-86
2023/08/15 06:38:45;;;;;;;7.28;2.05;;;19.00;99.90;;;;;;4950522;28;20035;-83
2023/08/15 06:41:13;;;;;;;6.30;2.08;;;19.10;99.90;;;;;;4949796;29;20342;-83
2023/08/15 06:43:39;;;;;;;8.68;2.05;;;19.10;99.90;;;;;;4949724;29;20133;-84
2023/08/15 06:46:04;;;;;;;6.50;2.08;;;19.20;99.90;;;;;;4950724;28;20458;-84
2023/08/15 06:48:30;;;;;;;8.43;2.20;;;19.10;99.90;;;;;;4950580;28;20031;-84
2023/08/15 06:50:56;;;;;;;4.60;2.05;;;19.10;99.90;;;;;;4949059;29;20035;-84
2023/08/15 06:53:22;;;;;;;6.57;2.10;;;19.10;99.90;;;;;;4950994;29;20065;-84
2023/08/15 06:55:50;;;;;;;6.65;2.78;;;19.00;99.90;;;;;;4953033;28;20077;-86
2023/08/15 06:58:17;;;;;;;6.60;2.03;;;19.10;99.90;;;;;;4946819;28;20033;-84
2023/08/15 07:00:44;;;;;;;6.95;2.20;;;19.80;99.90;;;;;;4952655;29;20070;-84
2023/08/15 07:03:09;;;;;;;4.93;2.03;;;19.20;99.90;;;;;;4953884;28;20446;-84
2023/08/15 07:05:35;;;;;;;7.07;2.00;;;19.10;99.90;;;;;;4953021;28;20110;-87
2023/08/15 07:08:03;;;;;;;5.85;1.90;;;19.10;99.90;;;;;;4954303;28;20041;-89
2023/08/15 07:10:29;;;;;;;7.82;2.10;;;19.20;99.90;;;;;;4953114;28;20028;-89
2023/08/15 07:12:54;;;;;;;3.55;1.63;;;19.20;99.90;;;;;;4950052;28;20035;-88
2023/08/15 07:15:20;;;;;;;4.55;1.75;;;19.20;99.90;;;;;;4951759;28;20035;-87
2023/08/15 07:17:46;;;;;;;10.27;2.05;;;19.20;99.90;;;;;;4953145;28;20147;-87
2023/08/15 07:20:14;;;;;;;7.60;2.00;;;19.20;99.90;;;;;;4953497;28;20062;-87
2023/08/15 07:22:40;;;;;;;;;;;19.20;99.90;;;;;;4952764;28;20032;-87
2023/08/15 07:25:06;;;;;;;5.70;1.80;;;19.10;99.90;;;;;;4953209;28;19933;-87
2023/08/15 07:27:32;;;;;;;7.90;1.88;;;19.20;99.90;;;;;;4941786;28;20032;-87
2023/08/15 07:29:58;;;;;;;8.02;1.65;;;19.10;99.90;;;;;;4934758;28;20103;-87
2023/08/15 07:32:26;;;;;;;8.73;1.63;;;19.30;99.90;;;;;;4953105;29;20512;-87
2023/08/15 07:34:51;;;;;;;10.52;2.30;;;19.30;99.90;;;;;;4953962;28;20066;-86
2023/08/15 07:37:17;;;;;;;5.35;1.50;;;19.30;99.90;;;;;;4952502;29;20094;-87
2023/08/15 07:39:43;;;;;;;9.57;2.10;;;19.40;99.90;;;;;;4950735;28;20408;-87
2023/08/15 07:42:08;;;;;;;7.47;1.67;;;19.50;99.90;;;;;;4942590;28;20031;-88
2023/08/15 07:44:34;;;;;;;4.80;1.60;;;19.50;99.90;;;;;;4941724;28;20559;-90
2023/08/15 07:46:59;;;;;;;4.40;1.60;;;19.60;99.90;;;;;;4942505;28;20411;-87
2023/08/15 07:49:25;;;;;;;4.20;1.63;;;19.60;99.90;;;;;;4954188;28;20407;-87
2023/08/15 07:51:52;;;;;;;7.72;1.80;;;;;;;;;;4952492;28;20054;-89
2023/08/15 07:54:19;;;;;;;4.10;1.58;;;19.60;99.90;;;;;;4962506;28;20085;-88
2023/08/15 07:56:45;;;;;;;3.28;1.45;;;;;;;;;;4947577;28;20258;-90
2023/08/15 07:59:10;;;;;;;5.15;1.80;;;19.50;99.90;;;;;;4949055;28;20031;-88
2023/08/15 08:01:36;;;;;;;3.67;1.48;;;19.50;99.90;;;;;;4950435;28;20103;-88
2023/08/15 08:04:02;;;;;;;3.90;1.67;;;19.50;99.90;;;;;;4950868;28;20070;-90
2023/08/15 08:06:27;;;;;;;10.38;2.97;;;19.60;99.90;;;;;;4949201;28;20020;-87
2023/08/15 08:08:53;;;;;;;7.70;1.83;;;19.70;99.90;;;;;;4952895;29;20023;-86
2023/08/15 08:11:19;;;;;;;4.18;1.40;;;19.70;99.90;;;;;;4953358;28;20474;-86
2023/08/15 08:13:44;;;;;;;8.50;1.50;;;20.60;99.90;;;;;;4951974;29;20833;-90
2023/08/15 08:16:10;;;;;;;5.35;1.73;;;19.70;99.90;;;;;;4953211;28;20031;-93
2023/08/15 08:18:35;;;;;;;6.72;1.30;;;19.60;99.90;;;;;;4952455;28;20054;-88
2023/08/15 08:21:19;;;;;;;6.50;1.30;;;17.70;99.90;;;;;;4952481;29;20074;-93
2023/08/15 08:23:45;;;;;;;6.60;1.80;;;20.20;99.90;;;;;;4952471;29;20031;-87
2023/08/15 08:26:11;;;;;;;7.43;1.60;;;19.60;99.90;;;;;;4964106;28;20030;-87
2023/08/15 08:28:37;;;;;;;4.78;1.60;;;;;;;;;;4951594;29;20031;-94
2023/08/15 08:31:03;;;;;;;6.43;1.60;;;;;;;;;;4952745;28;20027;-89
2023/08/15 08:33:29;;;;;;;6.78;1.73;;;;;;;;;;4953034;28;20039;-93
2023/08/15 08:35:56;;;;;;;6.60;1.58;;;;;;;;;;4953664;29;20031;-94
2023/08/15 08:38:22;;;;;;;6.18;1.70;;;;;;;;;;4955246;29;20034;-90
2023/08/15 08:40:48;;;;;;;8.15;1.67;;;;;;;;;;4950949;29;20573;-89
2023/08/15 08:43:15;;;;;;;2.28;1.20;;;19.80;99.90;;;;;;4951819;28;20027;-94
2023/08/15 08:45:50;;;;;;;5.63;1.75;;;19.80;99.90;;;;;;4952458;28;20038;-91
2023/08/15 08:48:17;;;;;;;5.57;1.63;;;19.80;99.90;;;;;;4953437;29;20027;-89
2023/08/15 08:50:44;;;;;;;6.97;1.85;;;19.70;99.90;;;;;;4947089;29;20078;-93
2023/08/15 08:53:10;;;;;;;4.10;1.50;;;19.70;99.90;;;;;;4940928;29;20031;-93
2023/08/15 08:55:36;;;;;;;9.25;1.80;;;19.60;99.90;;;;;;4933189;28;20046;-88
2023/08/15 08:58:03;;;;;;;7.63;1.55;;;19.80;99.90;;;;;;4946265;28;20046;-91
2023/08/15 09:00:33;;;;;;;5.13;1.45;;;20.00;99.90;;;;;;4942399;28;20529;-90
2023/08/15 09:03:05;;;;;;;3.53;1.65;;;;;;;;;;4950815;28;20046;-94
2023/08/15 09:05:32;;;;;;;6.13;1.80;;;;;;;;;;4960448;28;20027;-95
2023/08/15 09:08:04;;;;;;;5.53;1.60;;;20.00;99.90;;;;;;4967401;29;20047;-94
2023/08/15 09:10:30;;;;;;;6.25;1.60;;;20.10;99.90;;;;;;4958544;29;20045;-93
2023/08/15 09:12:59;;;;;;;2.78;1.40;;;20.30;99.90;;;;;;4954875;28;20392;-95
2023/08/15 09:15:25;;;;;;;2.67;1.20;;;21.00;99.90;;;;;;4954371;29;20031;-93
2023/08/15 09:18:00;;;;;;;5.90;1.50;;;20.50;99.90;;;;;;4954307;28;20019;-93
2023/08/15 09:20:26;;;;;;;3.80;1.27;;;20.60;99.90;;;;;;4954928;29;20106;-92
2023/08/15 09:22:56;;;;;;;6.82;1.58;;;20.60;99.90;;;;;;4955177;29;20455;-90
2023/08/15 09:25:25;;;;;;;7.25;1.50;;;20.70;99.90;;;;;;4956473;29;20023;-92
2023/08/15 09:27:53;;;;;;;4.55;1.58;;;20.70;99.90;;;;;;4957292;28;20030;-91
2023/08/15 09:30:21;;;;;;;4.75;1.48;;;20.80;99.90;;;;;;4968116;28;20642;-91
2023/08/15 09:32:47;;;;;;;6.65;1.48;;;20.90;99.90;;;;;;4952784;29;20043;-92
2023/08/15 09:35:15;;;;;;;5.10;1.40;;;20.90;99.90;;;;;;4951786;29;20111;-91
2023/08/15 09:37:49;;;;;;;6.93;1.50;;;20.90;99.90;;;;;;4961584;29;20043;-91
2023/08/15 09:40:17;;;;;;;5.88;1.50;;;21.80;99.90;;;;;;4961161;29;20031;-95
2023/08/15 09:42:44;;;;;;;2.58;1.33;;;21.00;99.90;;;;;;4958271;29;20510;-92
2023/08/15 09:45:13;;;;;;;2.72;1.60;;;21.10;99.90;;;;;;4953321;28;20399;-90
2023/08/15 09:47:40;;;;;;;5.87;1.60;;;21.10;99.90;;;;;;4952684;28;20023;-91
2023/08/15 09:50:07;;;;;;;8.45;1.60;;;21.20;99.90;;;;;;4951689;29;20440;-89
2023/08/15 09:52:41;;;;;;;4.28;1.35;;;21.20;99.90;;;;;;4952502;28;20027;-90
2023/08/15 09:55:11;;;;;;;2.90;1.42;;;21.10;99.90;;;;;;4952271;29;20507;-90
2023/08/15 09:57:42;;;;;;;5.80;1.58;;;21.00;99.90;;;;;;4951615;29;20029;-90
2023/08/15 10:00:12;;;;;;;5.13;1.40;;;21.10;99.90;;;;;;4955749;28;20028;-95
2023/08/15 10:02:55;;;;;;;4.70;1.43;;;21.20;99.90;;;;;;4945922;29;20031;-95
2023/08/15 10:05:21;;;;;;;3.10;1.17;;;21.30;99.90;;;;;;4951806;28;20287;-93
2023/08/15 10:07:48;;;;;;;3.17;1.20;;;21.10;99.90;;;;;;4950588;29;20055;-90
2023/08/15 10:10:16;;;;;;;4.10;1.63;;;21.00;99.90;;;;;;4948895;28;20027;-91
2023/08/15 10:12:44;;;;;;;4.80;1.27;;;21.20;99.90;;;;;;4967448;28;20027;-90
2023/08/15 10:15:11;;;;;;;3.40;1.30;;;21.40;99.90;;;;;;4952039;28;20127;-92
2023/08/15 10:17:38;;;;;;;2.55;1.20;;;21.50;99.90;;;;;;4967252;28;20069;-88
2023/08/15 10:20:12;;;;;;;3.57;1.30;;;21.60;99.90;;;;;;4949341;28;20031;-90
2023/08/15 10:22:39;;;;;;;3.97;1.30;;;21.60;99.90;;;;;;4943897;28;20023;-90
2023/08/15 10:25:23;;;;;;;2.10;1.10;;;21.70;99.90;;;;;;4950480;28;20012;-88
2023/08/15 10:27:52;;;;;;;8.23;1.17;;;21.80;99.90;;;;;;4951302;28;20035;-91
2023/08/15 10:30:36;;;;;;;5.18;1.17;;;21.80;99.90;;;;;;4953443;28;20027;-90
2023/08/15 10:33:14;;;;;;;5.47;1.27;;;21.80;99.90;;;;;;4955569;28;20027;-89
2023/08/15 10:35:55;;;;;;;2.80;1.23;;;21.60;99.90;;;;;;4953950;29;20156;-88
2023/08/15 10:38:32;;;;;;;3.17;1.40;;;21.60;99.90;;;;;;4953325;29;20031;-90
2023/08/15 10:41:15;;;;;;;4.80;1.40;;;21.50;99.90;;;;;;4955417;28;20066;-89
2023/08/15 10:43:48;;;;;;;7.35;1.30;;;21.60;99.90;;;;;;4954298;29;20035;-90
2023/08/15 10:46:16;;;;;;;4.45;1.45;;;21.60;99.90;;;;;;4954188;28;20158;-89
2023/08/15 10:48:47;;;;;;;;;;;21.70;99.90;;;;;;4954178;29;20039;-88
2023/08/15 10:51:27;;;;;;;2.90;1.20;;;21.60;99.90;;;;;;4954565;29;19906;-88
2023/08/15 10:54:00;;;;;;;5.45;1.60;;;21.40;99.90;;;;;;4954704;28;20042;-89
2023/08/15 10:56:37;;;;;;;3.97;1.13;;;21.50;99.90;;;;;;4954560;28;20028;-90
2023/08/15 10:59:13;;;;;;;3.30;1.50;;;21.50;99.90;;;;;;4954263;28;20039;-90
2023/08/15 11:01:44;;;;;;;4.55;1.10;;;21.50;99.90;;;;;;4935597;29;20126;-89
2023/08/15 11:04:14;;;;;;;3.70;1.40;;;21.60;99.90;;;;;;4936095;29;20032;-88
2023/08/15 11:06:46;;;;;;;3.58;1.35;;;21.60;99.90;;;;;;4954651;28;20023;-91
2023/08/15 11:09:11;;;;;;;4.65;1.10;;;21.70;99.90;;;;;;4953905;28;20533;-90
2023/08/15 11:11:37;;;;;;;2.80;1.45;;;21.60;99.90;;;;;;4947000;28;20031;-92
2023/08/15 11:14:03;;;;;;;5.40;1.27;;;21.60;99.90;;;;;;4950863;28;20460;-92
2023/08/15 11:16:29;;;;;;;4.63;1.10;;;20.50;99.90;;;;;;4954625;28;20059;-94
2023/08/15 11:18:57;;;;;;;4.47;1.33;;;21.70;99.90;;;;;;4954015;29;20617;-93
2023/08/15 11:21:27;;;;;;;4.18;1.40;;;21.80;99.90;;;;;;4958540;29;20026;-93
2023/08/15 11:23:59;;;;;;;3.05;0.90;;;21.80;99.90;;;;;;4958062;29;20035;-95
2023/08/15 11:30:49;;;;;;;2.22;1.15;;;22.00;99.90;;;;;;4919538;29;20040;-95
2023/08/15 11:45:04;;;;;;;;;;;;;;;;;;;;;
2023/08/15 12:02:25;;;;;;;;;;;;;;;;;;;;;
2023/08/15 12:18:46;;;;;;;;;;;;;;;;;;;;;
2023/08/15 12:21:41;;;;;;;2.58;1.20;;;22.70;99.90;;;;;;4809145;29;20121;-95
2023/08/15 12:29:54;;;;;;;1.40;0.88;;;22.50;99.90;;;;;;5343759;23;20055;-92
2023/08/15 12:33:02;;;;;;;3.17;0.98;;;22.40;99.90;;;;;;4975945;28;20030;-93
2023/08/15 12:35:28;;;;;;;5.07;1.20;;;22.30;99.90;;;;;;4930123;28;20079;-92
2023/08/15 12:38:11;;;;;;;5.72;1.30;;;22.00;99.90;;;;;;4936319;29;20075;-94
2023/08/15 12:44:08;;;;;;;3.55;1.00;;;22.10;99.90;;;;;;5006077;23;20050;-93
2023/08/15 12:49:05;;;;;;;3.10;0.95;;;22.00;99.90;;;;;;5098102;23;20190;-94
2023/08/15 12:55:02;;;;;;;;;;;;;;;;;;;;;
2023/08/15 12:58:22;;;;;;;2.65;0.90;;;21.90;99.90;;;;;;4983781;28;20106;-95
2023/08/15 13:56:34;;;;;;;4.97;1.05;;;22.70;99.90;;;;;;5046183;23;20197;-92
2023/08/15 13:59:07;;;;;;;2.58;1.02;;;22.50;99.90;;;;;;4977309;28;20041;-92
2023/08/15 14:11:23;;;;;;;;;;;;;;;;;;;;;
2023/08/15 14:22:51;;;;;;;;;;;;;;;;;;;;;
2023/08/15 14:28:03;;;;;;;3.70;1.27;;;22.70;99.90;;;;;;4985954;23;20145;-93
2023/08/15 14:30:44;;;;;;;5.00;1.50;;;23.00;99.90;;;;;;4963555;28;20384;-93
2023/08/15 14:33:11;;;;;;;3.50;1.40;;;22.70;99.90;;;;;;4961025;28;20039;-94
2023/08/15 14:35:39;;;;;;;1.52;1.00;;;22.70;99.90;;;;;;4959518;28;20036;-93
2023/08/15 14:41:34;;;;;;;4.22;1.40;;;22.60;99.90;;;;;;4965322;28;20031;-91
2023/08/15 14:44:00;;;;;;;2.92;1.20;;;22.60;99.90;;;;;;4963664;28;20031;-94
2023/08/15 14:46:28;;;;;;;3.15;1.30;;;22.80;99.90;;;;;;4964423;28;20030;-95
2023/08/15 14:48:58;;;;;;;2.67;1.13;;;22.80;99.90;;;;;;4972399;28;20011;-94
2023/08/15 14:51:26;;;;;;;4.82;1.30;;;22.90;99.90;;;;;;4977049;28;20062;-95
2023/08/15 14:57:15;;;;;;;;;;;22.90;99.90;;;;;;4957827;28;20570;-94
2023/08/15 15:00:08;;;;;;;3.72;1.05;;;23.10;99.90;;;;;;4956380;28;19907;-94
2023/08/15 15:02:36;;;;;;;4.45;1.63;;;22.50;99.90;;;;;;4962922;28;20423;-95
2023/08/15 15:10:56;;;;;;;3.55;1.20;;;22.70;99.90;;;;;;4958448;23;20046;-92
2023/08/15 15:13:37;;;;;;;3.33;1.40;;;22.70;99.90;;;;;;4958143;29;20069;-94
2023/08/15 15:27:50;;;;;;;3.85;1.20;;;23.10;99.90;;;;;;5846170;23;20062;-93
2023/08/15 15:30:16;;;;;;;1.20;1.00;;;23.80;99.90;;;;;;4964905;28;20091;-94
2023/08/15 15:32:44;;;;;;;3.08;1.20;;;23.10;99.90;;;;;;4980597;28;20034;-95
2023/08/15 15:35:17;;;;;;;4.20;1.17;;;23.20;99.90;;;;;;5295973;23;20051;-94
2023/08/15 15:37:43;;;;;;;3.42;1.33;;;23.30;99.90;;;;;;4954837;29;20031;-94
2023/08/15 15:40:14;;;;;;;4.00;1.00;;;23.10;99.90;;;;;;4955660;29;20219;-93
2023/08/15 15:42:40;;;;;;;1.77;0.98;;;23.20;99.90;;;;;;4954290;29;20085;-95
2023/08/15 15:45:13;;;;;;;3.40;0.90;;;23.20;99.90;;;;;;4959356;28;20023;-94